^^
Grace C. Lehan Memorial Weather Station Historical Data
Daily Summary for April 15, 2021 Units:  English    Metric   Both
Daily Weekly Monthly Yearly
  High: Low: Average:
Temperature: 79.7 °F 57.6 °F 67.5 °F
Dew Point: 66.4 °F 56.2 °F 61.4 °F
Humidity: 96% 60.7% 82%
Wind Speed: 2mph 0mph 0.1mph
Wind Gust: 9mph - -
Wind- - WSW
Pressure: 29.92 in 29.83 in -
Precipitation: 0.00 in    
 
 
Tabular Data for April 15, 2021
Time Temperature Dew Point Pressure Wind Wind Speed Wind Gust Humidity Rainfall Rate (Hourly) solar
00:00 63 °F 59.7 °F 29.88 in Calm     89% 0.00 in 0 W/m2
00:09 62.8 °F 59.8 °F 29.88 in Calm     90% 0.00 in 0 W/m2
00:14 62.7 °F 59.7 °F 29.88 in Calm     90% 0.00 in 0 W/m2
00:19 62.6 °F 59.7 °F 29.88 in Calm     90.3% 0.00 in 0 W/m2
00:24 62.5 °F 59.6 °F 29.88 in Calm     90% 0.00 in 0 W/m2
00:29 62.4 °F 59.4 °F 29.88 in Calm     90% 0.00 in 0 W/m2
00:34 62.3 °F 59.6 °F 29.88 in Calm     91% 0.00 in 0 W/m2
00:39 62.2 °F 59.6 °F 29.88 in Calm     91% 0.00 in 0 W/m2
00:44 62.2 °F 59.5 °F 29.88 in Calm     91% 0.00 in 0 W/m2
00:49 62.1 °F 59.5 °F 29.89 in Calm     91% 0.00 in 0 W/m2
00:54 62 °F 59.4 °F 29.89 in Calm     91% 0.00 in 0 W/m2
00:59 62 °F 59.4 °F 29.88 in Calm     91.2% 0.00 in 0 W/m2
01:04 61.9 °F 59.6 °F 29.88 in Calm     92% 0.00 in 0 W/m2
01:09 61.9 °F 59.6 °F 29.88 in Calm     92% 0.00 in 0 W/m2
01:14 61.9 °F 59.5 °F 29.88 in Calm     92% 0.00 in 0 W/m2
01:19 61.8 °F 59.5 °F 29.88 in Calm     92% 0.00 in 0 W/m2
01:24 61.8 °F 59.4 °F 29.88 in Calm     92% 0.00 in 0 W/m2
01:29 61.7 °F 59.3 °F 29.88 in Calm     92% 0.00 in 0 W/m2
01:34 61.6 °F 59.2 °F 29.88 in Calm     92% 0.00 in 0 W/m2
01:39 61.4 °F 59.1 °F 29.88 in Calm     92% 0.00 in 0 W/m2
01:44 61.4 °F 59 °F 29.88 in Calm     92% 0.00 in 0 W/m2
01:49 61.3 °F 58.9 °F 29.88 in Calm     92% 0.00 in 0 W/m2
01:54 61.2 °F 58.9 °F 29.88 in Calm     92.2% 0.00 in 0 W/m2
01:59 61.1 °F 59.1 °F 29.88 in Calm     93% 0.00 in 0 W/m2
02:04 61 °F 59 °F 29.88 in Calm     93% 0.00 in 0 W/m2
02:09 61 °F 59 °F 29.88 in Calm     93% 0.00 in 0 W/m2
02:14 60.9 °F 58.9 °F 29.88 in Calm     93% 0.00 in 0 W/m2
02:19 60.8 °F 58.8 °F 29.89 in Calm     93% 0.00 in 0 W/m2
02:24 60.7 °F 58.7 °F 29.89 in Calm     93% 0.00 in 0 W/m2
02:29 60.6 °F 58.5 °F 29.88 in Calm     93% 0.00 in 0 W/m2
02:34 60.4 °F 58.4 °F 29.88 in Calm     93% 0.00 in 0 W/m2
02:39 60.3 °F 58.3 °F 29.88 in Calm     93% 0.00 in 0 W/m2
02:44 60.3 °F 58.2 °F 29.88 in Calm     93% 0.00 in 0 W/m2
02:49 60.2 °F 58.2 °F 29.88 in Calm     93% 0.00 in 0 W/m2
02:54 60.1 °F 58.1 °F 29.88 in Calm     93% 0.00 in 0 W/m2
02:59 60 °F 58 °F 29.88 in Calm     93% 0.00 in 0 W/m2
03:04 60 °F 58 °F 29.88 in Calm     93% 0.00 in 0 W/m2
03:09 59.9 °F 57.9 °F 29.88 in Calm     93% 0.00 in 0 W/m2
03:14 59.9 °F 57.9 °F 29.88 in Calm     93% 0.00 in 0 W/m2
03:19 59.8 °F 57.8 °F 29.88 in Calm     93% 0.00 in 0 W/m2
03:24 59.8 °F 57.8 °F 29.88 in Calm     93% 0.00 in 0 W/m2
03:29 59.7 °F 57.7 °F 29.88 in Calm     93% 0.00 in 0 W/m2
03:34 59.6 °F 57.6 °F 29.88 in Calm     93% 0.00 in 0 W/m2
03:39 59.5 °F 57.5 °F 29.88 in Calm     93% 0.00 in 0 W/m2
03:44 59.4 °F 57.4 °F 29.89 in Calm     93% 0.00 in 0 W/m2
03:49 59.3 °F 57.3 °F 29.89 in Calm     93% 0.00 in 0 W/m2
03:54 59.2 °F 57.4 °F 29.89 in Calm     93.5% 0.00 in 0 W/m2
03:59 59.2 °F 57.5 °F 29.89 in Calm     94% 0.00 in 0 W/m2
04:00 59.3 °F 57.6 °F 29.89 in Calm     94% 0.00 in 0 W/m2
04:09 59.3 °F 57.6 °F 29.89 in Calm     94% 0.00 in 0 W/m2
04:14 59.3 °F 57.6 °F 29.89 in Calm     94% 0.00 in 0 W/m2
04:19 59.3 °F 57.6 °F 29.89 in Calm     94% 0.00 in 0 W/m2
04:24 59.3 °F 57.5 °F 29.89 in Calm     94% 0.00 in 0 W/m2
04:29 59.1 °F 57.4 °F 29.88 in Calm     94% 0.00 in 0 W/m2
04:34 59 °F 57.3 °F 29.88 in Calm     94% 0.00 in 0 W/m2
04:39 58.9 °F 57.2 °F 29.89 in Calm     94% 0.00 in 0 W/m2
04:44 58.8 °F 57.1 °F 29.89 in Calm     94% 0.00 in 0 W/m2
04:49 58.7 °F 57 °F 29.89 in Calm     94% 0.00 in 0 W/m2
04:54 58.6 °F 56.8 °F 29.89 in Calm     94% 0.00 in 0 W/m2
04:59 58.4 °F 56.7 °F 29.88 in Calm     94% 0.00 in 0 W/m2
05:04 58.3 °F 56.6 °F 29.88 in Calm     94% 0.00 in 0 W/m2
05:09 58.2 °F 56.5 °F 29.88 in Calm     94% 0.00 in 0 W/m2
05:14 58.1 °F 56.4 °F 29.89 in Calm     94% 0.00 in 0 W/m2
05:19 58 °F 56.3 °F 29.89 in Calm     94% 0.00 in 0 W/m2
05:24 58 °F 56.3 °F 29.89 in Calm     94% 0.00 in 0 W/m2
05:29 57.9 °F 56.2 °F 29.89 in Calm     94% 0.00 in 0 W/m2
05:34 57.9 °F 56.2 °F 29.89 in Calm     94% 0.00 in 0 W/m2
05:39 57.9 °F 56.2 °F 29.89 in Calm     94% 0.00 in 0 W/m2
05:44 57.9 °F 56.2 °F 29.89 in Calm     94% 0.00 in 0 W/m2
05:49 57.9 °F 56.2 °F 29.89 in Calm     94% 0.00 in 0 W/m2
05:54 57.9 °F 56.2 °F 29.89 in Calm     94% 0.00 in 0 W/m2
05:59 57.9 °F 56.2 °F 29.89 in Calm     94% 0.00 in 0 W/m2
06:04 57.9 °F 56.3 °F 29.89 in Calm     94.6% 0.00 in 0 W/m2
06:09 57.9 °F 56.5 °F 29.89 in Calm     95% 0.00 in 0 W/m2
06:14 57.9 °F 56.5 °F 29.89 in Calm     95% 0.00 in 0 W/m2
06:19 57.9 °F 56.5 °F 29.90 in Calm     95% 0.00 in 0 W/m2
06:24 57.8 °F 56.4 °F 29.90 in Calm     95% 0.00 in 0 W/m2
06:29 57.8 °F 56.4 °F 29.90 in Calm     95% 0.00 in 0 W/m2
06:34 57.8 °F 56.4 °F 29.90 in Calm     95% 0.00 in 0 W/m2
06:39 57.7 °F 56.3 °F 29.90 in Calm     95% 0.00 in 0 W/m2
06:44 57.7 °F 56.2 °F 29.90 in Calm     95% 0.00 in 0 W/m2
06:49 57.6 °F 56.2 °F 29.90 in Calm     95% 0.00 in 0 W/m2
06:54 57.6 °F 56.2 °F 29.90 in Calm     95% 0.00 in 0 W/m2
06:59 57.6 °F 56.2 °F 29.90 in Calm     95% 0.00 in 0 W/m2
07:04 57.7 °F 56.3 °F 29.90 in Calm     95% 0.00 in 5 W/m2
07:09 57.7 °F 56.3 °F 29.90 in Calm     95% 0.00 in 7 W/m2
07:14 57.8 °F 56.4 °F 29.90 in Calm     95% 0.00 in 11 W/m2
07:19 57.8 °F 56.4 °F 29.90 in Calm     95% 0.00 in 16 W/m2
07:24 57.9 °F 56.4 °F 29.90 in Calm     95% 0.00 in 26 W/m2
07:29 57.9 °F 56.5 °F 29.91 in Calm     95% 0.00 in 33 W/m2
07:34 58 °F 56.6 °F 29.91 in Calm     95% 0.00 in 37 W/m2
07:39 58.1 °F 56.7 °F 29.91 in Calm     95% 0.00 in 47 W/m2
07:44 58.3 °F 56.9 °F 29.91 in Calm     95.1% 0.00 in 47 W/m2
07:49 58.5 °F 57.4 °F 29.90 in Calm     96% 0.00 in 53 W/m2
07:54 58.7 °F 57.6 °F 29.90 in Calm     96% 0.00 in 53 W/m2
07:59 58.9 °F 57.8 °F 29.90 in Calm     96% 0.00 in 54 W/m2
08:09 59.5 °F 58.3 °F 29.90 in Calm     96% 0.00 in 72 W/m2
08:14 59.9 °F 58.7 °F 29.89 in Calm     96% 0.00 in 70 W/m2
08:19 60.2 °F 59 °F 29.90 in Calm     96% 0.00 in 67 W/m2
08:24 60.4 °F 59.3 °F 29.90 in Calm     96% 0.00 in 70 W/m2
08:29 60.6 °F 59.5 °F 29.90 in Calm     96% 0.00 in 72 W/m2
08:34 60.9 °F 59.7 °F 29.90 in Calm     96% 0.00 in 67 W/m2
08:39 61.1 °F 59.9 °F 29.91 in Calm     96% 0.00 in 90 W/m2
08:44 61.3 °F 60.1 °F 29.91 in Calm     96% 0.00 in 98 W/m2
08:49 61.5 °F 60.4 °F 29.91 in Calm     96% 0.00 in 165 W/m2
08:54 61.7 °F 60.6 °F 29.91 in Calm     96% 0.00 in 151 W/m2
08:59 62.1 °F 60.9 °F 29.91 in Calm     96% 0.00 in 288 W/m2
09:04 62.6 °F 61.5 °F 29.91 in Calm     96% 0.00 in 288 W/m2
09:09 63.2 °F 62 °F 29.91 in Calm     96% 0.00 in 267 W/m2
09:14 63.7 °F 62.2 °F 29.91 in Calm     95% 0.00 in 209 W/m2
09:19 64.3 °F 62.7 °F 29.91 in Calm     94.4% 0.00 in 373 W/m2
09:24 65.4 °F 63.6 °F 29.91 in Calm     93.9% 0.00 in 378 W/m2
09:29 66.6 °F 64.1 °F 29.91 in Calm     91.9% 0.00 in 418 W/m2
09:34 67.8 °F 64.5 °F 29.91 in Calm     89.2% 0.00 in 473 W/m2
09:39 69.1 °F 65.1 °F 29.91 in Calm     86.9% 0.00 in 508 W/m2
09:44 70.5 °F 65.3 °F 29.91 in Calm     83.8% 0.00 in 517 W/m2
09:49 71.3 °F 65 °F 29.91 in Calm     80.6% 0.00 in 512 W/m2
09:54 71.7 °F 65 °F 29.91 in Calm     79.6% 0.00 in 496 W/m2
09:59 72 °F 65.1 °F 29.91 in Calm     78.8% 0.00 in 218 W/m2
10:04 72.1 °F 65.1 °F 29.91 in Calm     78.5% 0.00 in 497 W/m2
10:09 72.4 °F 65.5 °F 29.92 in Calm     78.8% 0.00 in 497 W/m2
10:14 73.1 °F 65.4 °F 29.92 in Calm     77% 0.00 in 499 W/m2
10:19 73.7 °F 66 °F 29.92 in Calm     76.7% 0.00 in 506 W/m2
10:24 74.3 °F 65.8 °F 29.92 in Calm     74.7% 0.00 in 517 W/m2
10:29 74.9 °F 66.3 °F 29.92 in Calm     74.7% 0.00 in 527 W/m2
10:34 75.3 °F 66.3 °F 29.91 in Calm     73.5% 0.00 in 536 W/m2
10:39 75.8 °F 66.2 °F 29.91 in Calm     72.1% 0.00 in 545 W/m2
10:44 76.3 °F 66.2 °F 29.91 in Calm     71% 0.00 in 554 W/m2
10:49 76.4 °F 65.7 °F 29.91 in Calm     69.5% 0.00 in 563 W/m2
10:54 76.7 °F 65.9 °F 29.91 in Calm     69.3% 0.00 in 568 W/m2
10:59 77.1 °F 66.4 °F 29.91 in Calm     69.6% 0.00 in 575 W/m2
11:04 77.3 °F 66.4 °F 29.91 in Calm     68.9% 0.00 in 577 W/m2
11:09 77.7 °F 66.4 °F 29.90 in NW 0.1 mph 2 mph 68.3% 0.00 in 520 W/m2
11:14 77.8 °F 66 °F 29.90 in Calm   2 mph 67% 0.00 in 188 W/m2
11:19 77.9 °F 65.8 °F 29.90 in Calm   2 mph 66.3% 0.00 in 220 W/m2
11:24 77.9 °F 66.2 °F 29.90 in WNW 0.2 mph 3 mph 67.2% 0.00 in 420 W/m2
11:29 77.8 °F 66.2 °F 29.90 in Calm   3 mph 67.5% 0.00 in 496 W/m2
11:34 77.8 °F 66 °F 29.90 in Calm   3 mph 67.2% 0.00 in 422 W/m2
11:39 78.1 °F 66.2 °F 29.90 in Calm   1 mph 66.9% 0.00 in 422 W/m2
11:44 78.3 °F 65.7 °F 29.90 in WNW 0.1 mph 3 mph 65.3% 0.00 in 367 W/m2
11:49 78.3 °F 65.4 °F 29.90 in Calm   3 mph 64.7% 0.00 in 367 W/m2
11:54 78.2 °F 65.6 °F 29.90 in Calm   3 mph 65.2% 0.00 in 128 W/m2
11:59 78.3 °F 65.5 °F 29.89 in Calm   3 mph 64.7% 0.00 in 211 W/m2
12:00 78.4 °F 66.1 °F 29.89 in Calm   3 mph 66% 0.00 in 179 W/m2
12:09 78.7 °F 66.1 °F 29.89 in Calm     65.4% 0.00 in 485 W/m2
12:14 78.7 °F 65.7 °F 29.89 in Calm     64.3% 0.00 in 663 W/m2
12:19 78.8 °F 66.1 °F 29.89 in WSW 0.1 mph 3 mph 65% 0.00 in 666 W/m2
12:24 78.9 °F 65.5 °F 29.89 in WSW 0.1 mph 4 mph 63.4% 0.00 in 679 W/m2
12:29 78.8 °F 65.3 °F 29.89 in West 0.6 mph 4 mph 63.2% 0.00 in 571 W/m2
12:34 78.8 °F 64.9 °F 29.88 in West 0.8 mph 6 mph 62.5% 0.00 in 295 W/m2
12:39 78.9 °F 65.3 °F 29.88 in West 0.1 mph 6 mph 63.2% 0.00 in 151 W/m2
12:44 78.9 °F 65.4 °F 29.88 in West 0.5 mph 6 mph 63.2% 0.00 in 202 W/m2
12:49 79 °F 65.5 °F 29.88 in WSW 1 mph 6 mph 63.2% 0.00 in 234 W/m2
12:54 79.1 °F 65.8 °F 29.88 in SW 0.7 mph 6 mph 63.8% 0.00 in 241 W/m2
12:59 79.1 °F 65.6 °F 29.87 in WSW 0.8 mph 6 mph 63.3% 0.00 in 269 W/m2
13:04 79.1 °F 65.8 °F 29.87 in Calm   6 mph 63.8% 0.00 in 301 W/m2
13:09 79.1 °F 65.8 °F 29.87 in WSW 0.3 mph 3 mph 63.8% 0.00 in 295 W/m2
13:14 79.1 °F 65.7 °F 29.86 in West 0.7 mph 4 mph 63.5% 0.00 in 295 W/m2
13:19 79.2 °F 65.9 °F 29.86 in West 0.5 mph 4 mph 63.8% 0.00 in 98 W/m2
13:24 79.2 °F 65.9 °F 29.86 in West 0.5 mph 4 mph 63.8% 0.00 in 181 W/m2
13:29 79.3 °F 65.8 °F 29.86 in WSW 2 mph 9 mph 63.4% 0.00 in 137 W/m2
13:34 79.3 °F 65.4 °F 29.85 in WSW 1.3 mph 9 mph 62.5% 0.00 in 183 W/m2
13:39 79.4 °F 65.9 °F 29.85 in WSW 1 mph 7 mph 63.4% 0.00 in 156 W/m2
13:44 79.4 °F 65.8 °F 29.85 in WSW 1.5 mph 7 mph 63% 0.00 in 158 W/m2
13:49 79.6 °F 66.1 °F 29.85 in WSW 0.7 mph 7 mph 63.3% 0.00 in 139 W/m2
13:54 79.7 °F 65.2 °F 29.85 in WSW 0.7 mph 7 mph 61.3% 0.00 in 176 W/m2
13:59 79.7 °F 65.4 °F 29.85 in WSW 0.6 mph 7 mph 61.6% 0.00 in 193 W/m2
14:04 79.7 °F 64.9 °F 29.85 in WSW 1.2 mph 7 mph 60.7% 0.00 in 221 W/m2
14:09 79.5 °F 65.3 °F 29.85 in Calm   4 mph 61.9% 0.00 in 207 W/m2
14:14 79.4 °F 65.8 °F 29.85 in Calm   4 mph 63.3% 0.00 in 163 W/m2
14:19 79.3 °F 65.8 °F 29.85 in Calm   4 mph 63.4% 0.00 in 163 W/m2
14:24 79.2 °F 65.3 °F 29.85 in Calm   4 mph 62.7% 0.00 in 294 W/m2
14:29 79.1 °F 64.7 °F 29.85 in Calm   4 mph 61.5% 0.00 in 197 W/m2
14:34 79.1 °F 64.6 °F 29.85 in Calm   4 mph 61.3% 0.00 in 163 W/m2
14:39 79.1 °F 64.9 °F 29.85 in Calm     61.9% 0.00 in 151 W/m2
14:44 79 °F 65.1 °F 29.84 in Calm     62.5% 0.00 in 151 W/m2
14:49 78.9 °F 64.9 °F 29.84 in Calm     62.3% 0.00 in 156 W/m2
14:54 78.9 °F 65.5 °F 29.84 in WSW 0.2 mph 3 mph 63.5% 0.00 in 172 W/m2
14:59 79 °F 65.6 °F 29.84 in Calm   3 mph 63.5% 0.00 in 155 W/m2
15:04 79 °F 65.4 °F 29.84 in Calm   3 mph 63.2% 0.00 in 158 W/m2
15:09 78.9 °F 65.3 °F 29.84 in Calm   2 mph 63.1% 0.00 in 121 W/m2
15:14 78.8 °F 65.3 °F 29.84 in WSW 0.1 mph 2 mph 63.2% 0.00 in 134 W/m2
15:19 78.8 °F 66 °F 29.84 in Calm   2 mph 64.8% 0.00 in 311 W/m2
15:24 78.9 °F 66.2 °F 29.84 in Calm   2 mph 65.2% 0.00 in 153 W/m2
15:29 79.1 °F 66.4 °F 29.84 in Calm   2 mph 65.2% 0.00 in 183 W/m2
15:34 79.1 °F 65.7 °F 29.84 in WSW 0.1 mph 2 mph 63.7% 0.00 in 181 W/m2
15:39 79.1 °F 65.8 °F 29.83 in Calm   1 mph 63.8% 0.00 in 116 W/m2
15:44 79 °F 66.2 °F 29.84 in WSW 0.3 mph 3 mph 64.8% 0.00 in 102 W/m2
15:49 78.9 °F 66.2 °F 29.84 in WSW 0.1 mph 3 mph 65.1% 0.00 in 95 W/m2
15:54 78.9 °F 65.8 °F 29.84 in WSW 0.3 mph 4 mph 64.3% 0.00 in 120 W/m2
15:59 78.7 °F 66 °F 29.84 in WSW 0.3 mph 5 mph 65% 0.00 in 120 W/m2
16:00 78.7 °F 66 °F 29.84 in Calm   5 mph 65% 0.00 in 109 W/m2
16:09 78.6 °F 65.6 °F 29.84 in WSW 0.7 mph 3 mph 64.5% 0.00 in 63 W/m2
16:14 78.4 °F 65.4 °F 29.84 in Calm   3 mph 64.4% 0.00 in 46 W/m2
16:19 78.3 °F 65.6 °F 29.84 in Calm   3 mph 65.2% 0.00 in 35 W/m2
16:24 78.1 °F 65.8 °F 29.84 in Calm   3 mph 66% 0.00 in 33 W/m2
16:28 77.9 °F 65.8 °F 29.83 in WSW 0.5 mph 4 mph 66.3% 0.00 in 30 W/m2
Hartford County Weather
Compliments of Weather Underground - 4 mb